This is the latest recevied weather packets stored in our database for station/object W4VCO. If no packets are shown the sender has not sent any weather packets the latest 10 day(s).
| Time | Temp. | Humidity | Pressure | Rain* | Wind** | Luminosity | Snow |
|---|---|---|---|---|---|---|---|
| 1777902318 | 22.22° C | 65% | 1015.7 hPa | 0 mm | - | - | - |
| 1777901118 | 21.11° C | 70% | 1015.6 hPa | 0 mm | - | - | - |
| 1777900518 | 20.56° C | 73% | 1015.5 hPa | 0 mm | - | - | - |
| 1777899923 | 20° C | 76% | 1015.5 hPa | 0 mm | - | - | - |
| 1777898418 | 18.89° C | 83% | 1015.4 hPa | 0 mm | - | - | - |
| 1777893918 | 15.56° C | 93% | 1014.9 hPa | 0 mm | - | - | - |
| 1777893620 | 15° C | 93% | 1014.8 hPa | 0 mm | - | - | - |
| 1777892718 | 15° C | 93% | 1014.7 hPa | 0 mm | - | - | - |
| 1777892420 | 15° C | 93% | 1014.6 hPa | 0 mm | - | - | - |
| 1777892118 | 15° C | 93% | 1014.6 hPa | 0 mm | - | - | - |
| 1777891820 | 15° C | 93% | 1014.5 hPa | 0 mm | - | - | - |
| 1777890618 | 15.56° C | 92% | 1014.6 hPa | 0 mm | - | - | - |
| 1777887614 | 15.56° C | 92% | 1014.3 hPa | 0 mm | - | - | - |
| 1777883418 | 16.11° C | 91% | 1014.2 hPa | 0 mm | - | - | - |
| 1777882516 | 16.67° C | 90% | 1014.3 hPa | 0 mm | - | - | - |
| 1777882218 | 16.67° C | 89% | 1014.3 hPa | 0 mm | - | - | - |
| 1777881620 | 16.67° C | 90% | 1014.3 hPa | 0 mm | - | - | - |
| 1777881022 | 16.67° C | 89% | 1014.6 hPa | 0 mm | - | - | - |
| 1777880713 | 16.67° C | 89% | 1014.6 hPa | 0 mm | - | - | - |
| 1777879517 | 16.67° C | 89% | 1014.6 hPa | 0 mm | - | - | - |
| 1777879219 | 17.22° C | 89% | 1014.5 hPa | 0 mm | - | - | - |
| 1777878318 | 17.22° C | 89% | 1014.7 hPa | 0 mm | - | - | - |
| 1777876219 | 17.78° C | 85% | 1014.5 hPa | 0 mm | - | - | - |
| 1777875623 | 17.78° C | 85% | 1014.7 hPa | 0 mm | - | - | - |
| 1777874117 | 17.78° C | 84% | 1014.9 hPa | 0 mm | - | - | - |
* Rain latest hour (hover to see other rain measurements)
** Current wind speed in m/s (hover to see current wind gust speed)